OAL855 LGKC-LGZA
Flight info
| Callsign | OAL855 |
|---|---|
| Flight time | N/A |
| Altitude | 12000 |
| Route | SOKRI J65 TRL A14 ARA |
| Aircraft | C208/L-SDFGR/C |
Departure
| Time | 2026-05-07 08:28 |
|---|---|
| Airport | Kithira Airport (LGKC) |
Arrival
| Time | N/A |
|---|---|
| Airport | Zakynthos International Airport Dionysios Solomos (LGZA) |
| Time | Latitude | Longitude | Altitude | Speed | Heading |
|---|---|---|---|---|---|
| 2026-05-07 08:01 | 36.27558 | 23.01568 | 1026 ft | 0 kts | 123° |
| 2026-05-07 08:22 | 36.27534 | 23.01587 | 1029 ft | 8 kts | 174° |
| 2026-05-07 08:23 | 36.27458 | 23.01613 | 1029 ft | 15 kts | 154° |
| 2026-05-07 08:23 | 36.27355 | 23.01648 | 1028 ft | 18 kts | 197° |
| 2026-05-07 08:23 | 36.27231 | 23.01574 | 1031 ft | 21 kts | 206° |
| 2026-05-07 08:23 | 36.27096 | 23.01497 | 1029 ft | 23 kts | 206° |
| 2026-05-07 08:24 | 36.26951 | 23.01411 | 1028 ft | 20 kts | 204° |
| 2026-05-07 08:24 | 36.26875 | 23.01378 | 1028 ft | 5 kts | 186° |
| 2026-05-07 08:24 | 36.26859 | 23.01376 | 1029 ft | 0 kts | 188° |
| 2026-05-07 08:25 | 36.26848 | 23.01373 | 1028 ft | 4 kts | 189° |
| 2026-05-07 08:25 | 36.26833 | 23.01339 | 1025 ft | 7 kts | 337° |
| 2026-05-07 08:25 | 36.26849 | 23.01345 | 1025 ft | 0 kts | 28° |
| 2026-05-07 08:26 | 36.26858 | 23.01351 | 1024 ft | 9 kts | 27° |
| 2026-05-07 08:27 | 36.27054 | 23.01468 | 1028 ft | 54 kts | 25° |
| 2026-05-07 08:27 | 36.27508 | 23.01741 | 1029 ft | 90 kts | 26° |
| 2026-05-07 08:27 | 36.28114 | 23.02068 | 1129 ft | 99 kts | 19° |
| 2026-05-07 08:27 | 36.28749 | 23.02385 | 1301 ft | 101 kts | 20° |
| 2026-05-07 08:28 | 36.29438 | 23.02741 | 1403 ft | 114 kts | 18° |
| 2026-05-07 08:28 | 36.30231 | 23.03157 | 1527 ft | 128 kts | 22° |
| 2026-05-07 08:28 | 36.31015 | 23.03662 | 1763 ft | 127 kts | 31° |
| 2026-05-07 08:28 | 36.31767 | 23.04258 | 1957 ft | 130 kts | 32° |
| 2026-05-07 08:29 | 36.32525 | 23.04870 | 2164 ft | 131 kts | 37° |
| 2026-05-07 08:29 | 36.33079 | 23.05789 | 2282 ft | 137 kts | 72° |
| 2026-05-07 08:29 | 36.33120 | 23.06909 | 2508 ft | 128 kts | 111° |
| 2026-05-07 08:29 | 36.32766 | 23.07872 | 2810 ft | 119 kts | 117° |
| 2026-05-07 08:30 | 36.32517 | 23.08847 | 3033 ft | 121 kts | 104° |
| 2026-05-07 08:30 | 36.32120 | 23.09706 | 3226 ft | 114 kts | 146° |
| 2026-05-07 08:30 | 36.31595 | 23.10449 | 3447 ft | 119 kts | 115° |
| 2026-05-07 08:30 | 36.31398 | 23.11453 | 3655 ft | 120 kts | 107° |
| 2026-05-07 08:31 | 36.31210 | 23.12467 | 3858 ft | 121 kts | 105° |
| 2026-05-07 08:31 | 36.31041 | 23.13493 | 4059 ft | 122 kts | 104° |
| 2026-05-07 08:31 | 36.30876 | 23.14528 | 4249 ft | 123 kts | 104° |
| 2026-05-07 08:31 | 36.30711 | 23.15582 | 4432 ft | 125 kts | 104° |
| 2026-05-07 08:32 | 36.30549 | 23.16626 | 4610 ft | 125 kts | 104° |
| 2026-05-07 08:32 | 36.30385 | 23.17689 | 4788 ft | 126 kts | 104° |
| 2026-05-07 08:32 | 36.30219 | 23.18760 | 4969 ft | 126 kts | 104° |
| 2026-05-07 08:32 | 36.30054 | 23.19833 | 5143 ft | 127 kts | 104° |
| 2026-05-07 08:33 | 36.29888 | 23.20912 | 5313 ft | 128 kts | 103° |
| 2026-05-07 08:33 | 36.29720 | 23.21995 | 5486 ft | 128 kts | 103° |
| 2026-05-07 08:33 | 36.29553 | 23.23075 | 5653 ft | 127 kts | 103° |
| 2026-05-07 08:33 | 36.29385 | 23.24159 | 5827 ft | 128 kts | 103° |
| 2026-05-07 08:34 | 36.29216 | 23.25249 | 6002 ft | 129 kts | 103° |
| 2026-05-07 08:34 | 36.29048 | 23.26333 | 6175 ft | 130 kts | 102° |
| 2026-05-07 08:34 | 36.28877 | 23.27433 | 6345 ft | 130 kts | 102° |
| 2026-05-07 08:34 | 36.28707 | 23.28535 | 6521 ft | 130 kts | 102° |
| 2026-05-07 08:35 | 36.28536 | 23.29632 | 6685 ft | 130 kts | 102° |
| 2026-05-07 08:35 | 36.28421 | 23.30376 | 6796 ft | 130 kts | 102° |
| 2026-05-07 08:35 | 36.28195 | 23.31830 | 7010 ft | 129 kts | 101° |
| 2026-05-07 08:35 | 36.28083 | 23.32554 | 7109 ft | 129 kts | 101° |
| 2026-05-07 08:36 | 36.27910 | 23.33644 | 7279 ft | 129 kts | 102° |
| 2026-05-07 08:36 | 36.27743 | 23.34729 | 7442 ft | 128 kts | 101° |
| 2026-05-07 08:36 | 36.27575 | 23.35808 | 7593 ft | 128 kts | 101° |
| 2026-05-07 08:36 | 36.27407 | 23.36892 | 7737 ft | 128 kts | 101° |
| 2026-05-07 08:37 | 36.27237 | 23.37981 | 7891 ft | 129 kts | 101° |
| 2026-05-07 08:37 | 36.27065 | 23.39071 | 8031 ft | 129 kts | 101° |
| 2026-05-07 08:37 | 36.26894 | 23.40166 | 8177 ft | 129 kts | 100° |
| 2026-05-07 08:37 | 36.26724 | 23.41261 | 8325 ft | 129 kts | 100° |
| 2026-05-07 08:38 | 36.26556 | 23.42361 | 8467 ft | 130 kts | 97° |
| 2026-05-07 08:38 | 36.26708 | 23.43430 | 8631 ft | 126 kts | 57° |
| 2026-05-07 08:38 | 36.27298 | 23.44195 | 8784 ft | 122 kts | 25° |
| 2026-05-07 08:38 | 36.28083 | 23.44450 | 8930 ft | 118 kts | 354° |
| 2026-05-07 08:39 | 36.28859 | 23.44171 | 9039 ft | 117 kts | 324° |
| 2026-05-07 08:39 | 36.29498 | 23.43548 | 9150 ft | 118 kts | 320° |
| 2026-05-07 08:39 | 36.30156 | 23.42927 | 9260 ft | 120 kts | 320° |
| 2026-05-07 08:39 | 36.30817 | 23.42287 | 9371 ft | 121 kts | 320° |
| 2026-05-07 08:40 | 36.31487 | 23.41637 | 9485 ft | 123 kts | 320° |
| 2026-05-07 08:40 | 36.32160 | 23.40985 | 9616 ft | 123 kts | 320° |
| 2026-05-07 08:40 | 36.32832 | 23.40334 | 9750 ft | 122 kts | 320° |
| 2026-05-07 08:40 | 36.33503 | 23.39682 | 9881 ft | 122 kts | 320° |
| 2026-05-07 08:41 | 36.34173 | 23.39031 | 10014 ft | 123 kts | 320° |
| 2026-05-07 08:41 | 36.34845 | 23.38377 | 10125 ft | 122 kts | 320° |
| 2026-05-07 08:41 | 36.35517 | 23.37725 | 10238 ft | 123 kts | 320° |
| 2026-05-07 08:41 | 36.36189 | 23.37072 | 10352 ft | 123 kts | 320° |
| 2026-05-07 08:42 | 36.36858 | 23.36422 | 10478 ft | 124 kts | 320° |
| 2026-05-07 08:42 | 36.37538 | 23.35763 | 10594 ft | 124 kts | 320° |
| 2026-05-07 08:42 | 36.38218 | 23.35099 | 10715 ft | 125 kts | 320° |
| 2026-05-07 08:42 | 36.38905 | 23.34432 | 10841 ft | 125 kts | 320° |
| 2026-05-07 08:43 | 36.39595 | 23.33761 | 10946 ft | 127 kts | 320° |
| 2026-05-07 08:43 | 36.40295 | 23.33080 | 11046 ft | 128 kts | 320° |
| 2026-05-07 08:43 | 36.41000 | 23.32394 | 11144 ft | 129 kts | 320° |
| 2026-05-07 08:43 | 36.41712 | 23.31702 | 11247 ft | 130 kts | 320° |
| 2026-05-07 08:44 | 36.42416 | 23.31016 | 11344 ft | 130 kts | 320° |
| 2026-05-07 08:44 | 36.43140 | 23.30310 | 11443 ft | 131 kts | 320° |
| 2026-05-07 08:44 | 36.43848 | 23.29622 | 11542 ft | 131 kts | 320° |
| 2026-05-07 08:44 | 36.44566 | 23.28921 | 11640 ft | 131 kts | 320° |
| 2026-05-07 08:45 | 36.45286 | 23.28220 | 11741 ft | 132 kts | 320° |
| 2026-05-07 08:45 | 36.46008 | 23.27516 | 11840 ft | 132 kts | 320° |
| 2026-05-07 08:45 | 36.46730 | 23.26812 | 11939 ft | 132 kts | 320° |
| 2026-05-07 08:45 | 36.47459 | 23.26101 | 11996 ft | 136 kts | 320° |
| 2026-05-07 08:46 | 36.48217 | 23.25363 | 12010 ft | 141 kts | 320° |
| 2026-05-07 08:46 | 36.48982 | 23.24617 | 12101 ft | 140 kts | 320° |
| 2026-05-07 08:46 | 36.49763 | 23.23855 | 12109 ft | 145 kts | 320° |
| 2026-05-07 08:46 | 36.50567 | 23.23069 | 12114 ft | 149 kts | 320° |
| 2026-05-07 08:47 | 36.51381 | 23.22275 | 12111 ft | 152 kts | 320° |
| 2026-05-07 08:47 | 36.52218 | 23.21457 | 12114 ft | 154 kts | 320° |
| 2026-05-07 08:47 | 36.53066 | 23.20628 | 12108 ft | 156 kts | 320° |
| 2026-05-07 08:47 | 36.53921 | 23.19793 | 12111 ft | 157 kts | 320° |
| 2026-05-07 08:48 | 36.54780 | 23.18952 | 12111 ft | 158 kts | 320° |
| 2026-05-07 08:48 | 36.55644 | 23.18108 | 12107 ft | 158 kts | 320° |
| 2026-05-07 08:48 | 36.56509 | 23.17262 | 12109 ft | 158 kts | 320° |
| 2026-05-07 08:48 | 36.57377 | 23.16412 | 12109 ft | 159 kts | 320° |
| 2026-05-07 08:49 | 36.58246 | 23.15561 | 12110 ft | 159 kts | 320° |
| 2026-05-07 08:49 | 36.59115 | 23.14711 | 12111 ft | 159 kts | 320° |
| 2026-05-07 08:49 | 36.59982 | 23.13861 | 12111 ft | 159 kts | 320° |
| 2026-05-07 08:49 | 36.60842 | 23.13018 | 12112 ft | 159 kts | 320° |
| 2026-05-07 08:50 | 36.61711 | 23.12166 | 12110 ft | 159 kts | 320° |
| 2026-05-07 08:50 | 36.62584 | 23.11312 | 12106 ft | 159 kts | 320° |
| 2026-05-07 08:50 | 36.63457 | 23.10455 | 12106 ft | 160 kts | 320° |
| 2026-05-07 08:50 | 36.64330 | 23.09597 | 12109 ft | 160 kts | 320° |
| 2026-05-07 08:51 | 36.65204 | 23.08741 | 12109 ft | 160 kts | 320° |
| 2026-05-07 08:51 | 36.66077 | 23.07884 | 12106 ft | 160 kts | 320° |
| 2026-05-07 08:51 | 36.66950 | 23.07026 | 12106 ft | 160 kts | 320° |
| 2026-05-07 08:51 | 36.67825 | 23.06168 | 12103 ft | 160 kts | 320° |
| 2026-05-07 08:52 | 36.68689 | 23.05319 | 12116 ft | 161 kts | 320° |
| 2026-05-07 08:52 | 36.69590 | 23.04432 | 12096 ft | 165 kts | 320° |
| 2026-05-07 08:52 | 36.70486 | 23.03553 | 12097 ft | 163 kts | 320° |
| 2026-05-07 08:52 | 36.71374 | 23.02679 | 12099 ft | 162 kts | 319° |
| 2026-05-07 08:53 | 36.72262 | 23.01806 | 12104 ft | 164 kts | 319° |
| 2026-05-07 08:53 | 36.73165 | 23.00920 | 12105 ft | 165 kts | 320° |
| 2026-05-07 08:53 | 36.74065 | 23.00032 | 12102 ft | 164 kts | 319° |
| 2026-05-07 08:53 | 36.74965 | 22.99145 | 12102 ft | 165 kts | 320° |
| 2026-05-07 08:54 | 36.75864 | 22.98256 | 12099 ft | 165 kts | 319° |
| 2026-05-07 08:54 | 36.76757 | 22.97379 | 12100 ft | 165 kts | 320° |
| 2026-05-07 08:54 | 36.77656 | 22.96497 | 12094 ft | 164 kts | 319° |
| 2026-05-07 08:54 | 36.78551 | 22.95613 | 12095 ft | 164 kts | 319° |
| 2026-05-07 08:55 | 36.79447 | 22.94730 | 12096 ft | 164 kts | 319° |
| 2026-05-07 08:55 | 36.80340 | 22.93848 | 12094 ft | 164 kts | 319° |
| 2026-05-07 08:55 | 36.81233 | 22.92965 | 12090 ft | 164 kts | 319° |
| 2026-05-07 08:55 | 36.82117 | 22.92096 | 12087 ft | 164 kts | 319° |
| 2026-05-07 08:56 | 36.83010 | 22.91219 | 12091 ft | 163 kts | 319° |
| 2026-05-07 08:56 | 36.83892 | 22.90345 | 12095 ft | 162 kts | 319° |
| 2026-05-07 08:56 | 36.84775 | 22.89469 | 12097 ft | 163 kts | 319° |
| 2026-05-07 08:56 | 36.85665 | 22.88589 | 12098 ft | 163 kts | 319° |
| 2026-05-07 08:57 | 36.86556 | 22.87709 | 12101 ft | 164 kts | 319° |
| 2026-05-07 08:57 | 36.87452 | 22.86820 | 12098 ft | 164 kts | 319° |
| 2026-05-07 08:57 | 36.88351 | 22.85937 | 12105 ft | 164 kts | 319° |
| 2026-05-07 08:57 | 36.89247 | 22.85048 | 12092 ft | 164 kts | 319° |
| 2026-05-07 08:58 | 36.90138 | 22.84167 | 12095 ft | 162 kts | 319° |
| 2026-05-07 08:58 | 36.91017 | 22.83294 | 12102 ft | 161 kts | 319° |
| 2026-05-07 08:58 | 36.91884 | 22.82437 | 12097 ft | 161 kts | 319° |
| 2026-05-07 08:58 | 36.92767 | 22.81565 | 12091 ft | 162 kts | 319° |
| 2026-05-07 08:59 | 36.93649 | 22.80690 | 12096 ft | 162 kts | 319° |
| 2026-05-07 08:59 | 36.94534 | 22.79812 | 12094 ft | 162 kts | 319° |
| 2026-05-07 08:59 | 36.95418 | 22.78938 | 12093 ft | 161 kts | 319° |
| 2026-05-07 08:59 | 36.96295 | 22.78064 | 12100 ft | 160 kts | 319° |
| 2026-05-07 09:00 | 36.97172 | 22.77196 | 12100 ft | 161 kts | 319° |
| 2026-05-07 09:00 | 36.98051 | 22.76324 | 12097 ft | 161 kts | 319° |
| 2026-05-07 09:00 | 36.98931 | 22.75451 | 12099 ft | 162 kts | 319° |
| 2026-05-07 09:00 | 36.99811 | 22.74574 | 12096 ft | 161 kts | 319° |
| 2026-05-07 09:01 | 37.00679 | 22.73713 | 12099 ft | 162 kts | 319° |
| 2026-05-07 09:01 | 37.01561 | 22.72838 | 12098 ft | 161 kts | 319° |
| 2026-05-07 09:01 | 37.02441 | 22.71967 | 12100 ft | 162 kts | 319° |
| 2026-05-07 09:01 | 37.03320 | 22.71090 | 12095 ft | 161 kts | 319° |
| 2026-05-07 09:02 | 37.04197 | 22.70221 | 12094 ft | 160 kts | 319° |
| 2026-05-07 09:02 | 37.05067 | 22.69355 | 12094 ft | 160 kts | 319° |
| 2026-05-07 09:02 | 37.05939 | 22.68484 | 12093 ft | 160 kts | 319° |
| 2026-05-07 09:02 | 37.06798 | 22.67632 | 12099 ft | 160 kts | 319° |
| 2026-05-07 09:03 | 37.07666 | 22.66764 | 12106 ft | 160 kts | 318° |
| 2026-05-07 09:03 | 37.08544 | 22.65888 | 12100 ft | 162 kts | 318° |
| 2026-05-07 09:03 | 37.09420 | 22.65015 | 12105 ft | 160 kts | 318° |
| 2026-05-07 09:03 | 37.10296 | 22.64141 | 12102 ft | 162 kts | 319° |
| 2026-05-07 09:04 | 37.11179 | 22.63266 | 12109 ft | 162 kts | 319° |
| 2026-05-07 09:04 | 37.12064 | 22.62385 | 12103 ft | 162 kts | 319° |
| 2026-05-07 09:04 | 37.12948 | 22.61500 | 12104 ft | 163 kts | 318° |
| 2026-05-07 09:04 | 37.13839 | 22.60612 | 12103 ft | 163 kts | 319° |
| 2026-05-07 09:05 | 37.14715 | 22.59740 | 12106 ft | 164 kts | 319° |
| 2026-05-07 09:05 | 37.15018 | 22.59437 | 12102 ft | 164 kts | 319° |